This is the latest recevied weather packets stored in our database for station/object N0MPM-4. If no packets are shown the sender has not sent any weather packets the latest 10 day(s).
| Time | Temp. | Humidity | Pressure | Rain* | Wind** | Luminosity | Snow |
|---|---|---|---|---|---|---|---|
| 1777871091 | 11.11° C | 65% | 1006.3 hPa | 0 mm | - | - | - |
| 1777870791 | 11.11° C | 65% | 1006.4 hPa | 0 mm | - | - | - |
| 1777870491 | 11.11° C | 66% | 1006.3 hPa | 0 mm | - | - | - |
| 1777870191 | 11.11° C | 64% | 1006.4 hPa | 0 mm | - | - | - |
| 1777869891 | 11.11° C | 64% | 1006.5 hPa | 0 mm | - | - | - |
| 1777869591 | 11.67° C | 63% | 1006.6 hPa | 0 mm | - | - | - |
| 1777869291 | 11.67° C | 62% | 1006.6 hPa | 0 mm | - | - | - |
| 1777868991 | 11.67° C | 61% | 1006.7 hPa | 0 mm | - | - | - |
| 1777868691 | 12.22° C | 60% | 1006.7 hPa | 0 mm | - | - | - |
| 1777868391 | 12.78° C | 59% | 1006.8 hPa | 0 mm | - | - | - |
| 1777868091 | 12.78° C | 57% | 1006.8 hPa | 0 mm | - | - | - |
| 1777867791 | 12.78° C | 58% | 1006.9 hPa | 0 mm | - | - | - |
| 1777867491 | 12.78° C | 60% | 1006.9 hPa | 0 mm | - | - | - |
| 1777867191 | 12.78° C | 59% | 1006.9 hPa | 0 mm | - | - | - |
| 1777865691 | 13.33° C | 57% | 1007.3 hPa | 0 mm | - | - | - |
| 1777847093 | 23.33° C | 26% | 1007.3 hPa | 0 mm | - | - | - |
| 1777845593 | 23.33° C | 29% | 1007.2 hPa | 0 mm | - | - | - |
| 1777844993 | 22.78° C | 27% | 1007.3 hPa | 0 mm | - | - | - |
| 1777844693 | 22.78° C | 26% | 1007.2 hPa | 0 mm | - | - | - |
| 1777844093 | 23.33° C | 27% | 1007.2 hPa | 0 mm | - | - | - |
| 1777839893 | 23.33° C | 29% | 1007.6 hPa | 0 mm | - | - | - |
| 1777839293 | 22.78° C | 34% | 1007.6 hPa | 0 mm | - | - | - |
| 1777832994 | 20.56° C | 45% | 1008.4 hPa | 0 mm | - | - | - |
| 1777832694 | 20.56° C | 45% | 1008.4 hPa | 0 mm | - | - | - |
| 1777832394 | 20.56° C | 44% | 1008.2 hPa | 0 mm | - | - | - |
* Rain latest hour (hover to see other rain measurements)
** Current wind speed in m/s (hover to see current wind gust speed)